Aeroporto :
LOGIN :

Iscrizione | Disclaimer

   EN    FR    IT 

 










Sommario :    VFR   VFR Marginale   IFR   IFR Intensivo   IFR Molto Intensivo
Visibilità : 
Base nubi : 
>= 8 km
>= 3000ft
5 / 8 km
1000 / 3000 ft
1500m / 5 km
500 / 1000 ft
800 / 1500m
200 / 500 ft
< 800m
< 200 ft
Simboli :   Temporali  Nebbia  Neve Forte  Precipitazioni Forti  Vento > 20 kt
SIGMETs :   Varie  Temporali  Ghiacco  Turbolenza  Onda orograficha  Ceneri Vulcaniche






- Altitudine del aeroporto : 574 ft
- Codice IATA : TEQ


LTBU - Corlu

ULTIMO METAR :
  • 101150Z 04017KT 9999 SCT040 29/12 Q1012

METARs OBSOLETI :
  • 101120Z 04018KT 010V070 9999 SCT040 31/12 Q1013
  • 101050Z 03018KT 9999 SCT035 31/12 Q1012
  • 101020Z 04016KT 010V070 9999 SCT035 31/14 Q1012 RMK RWY22 04016KT 010V070
  • 100950Z 04016KT 9999 SCT035 30/16 Q1012
  • 100920Z 04018KT 010V070 9999 SCT035 29/16 Q1012

TAF TAF LTBU
Valido dal 10 a 12 ore il 11 a 12 ore UTC


101040Z 1012/1112 03020KT 9999 SCT035
BECMG 1012/1015 CAVOK
BECMG 1015/1018 34008KT
BECMG 1102/1105 FEW030
BECMG 1106/1109 04015KT CAVOK



MetMap, La meteo Aeronautica in un colpo d'occhio ! - Copyright ORBIFLY Dicembre 2007 - Disclaimer

ORBIFLY MET'MAP TEAM :

Programmazione e sviluppo : Alexandra Zaïnal
Concezione : Baudouin d'Aumeries
Aiuto per la programmazione : Marc-Olivier Méhu
Supporto tecnico e logistico : Manuel Goepfert
Aiuto per la traduzione : Arnaldo La Scala

Contatto : metmap@orbifly.com




FONTI E CREDITI :

   NOAA